Time;durP1;ratioP1;P1;durP2;ratioP2;P2;SDS_P1;SDS_P2;PMS_P1;PMS_P2;Temp;Humidity;BMP_temperature;BMP_pressure;BME280_temperature;BME280_humidity;BME280_pressure;Samples;Min_cycle;Max_cycle;Signal;HPM_P1;HPM_P2
2022/02/23 00:01:30;;;;;;;5.65;1.20;;;;;;;6.51;85.21;97393.56;5028146;28;20055;-64
2022/02/23 00:03:56;;;;;;;6.50;1.67;;;;;;;6.43;86.39;97394.38;5039517;28;20045;-65
2022/02/23 00:06:21;;;;;;;6.15;1.20;;;;;;;6.44;86.20;97387.81;5034466;28;20477;-65
2022/02/23 00:08:47;;;;;;;7.00;1.70;;;;;;;6.45;86.57;97396.78;5046649;28;20069;-65
2022/02/23 00:11:12;;;;;;;6.70;1.85;;;;;;;6.45;86.35;97394.88;5043262;28;20045;-64
2022/02/23 00:13:38;;;;;;;5.28;1.77;;;;;;;6.39;87.48;97393.44;5045172;28;20033;-65
2022/02/23 00:16:05;;;;;;;3.42;1.30;;;;;;;6.41;87.45;97393.91;5035738;28;20080;-66
2022/02/23 00:18:30;;;;;;;5.72;1.60;;;;;;;6.31;87.13;97391.50;5029328;28;20045;-65
2022/02/23 00:20:56;;;;;;;8.38;2.22;;;;;;;6.31;87.48;97400.47;5039797;28;20072;-66
2022/02/23 00:23:21;;;;;;;9.38;1.55;;;;;;;6.32;86.75;97390.41;5042098;28;21565;-65
2022/02/23 00:25:46;;;;;;;7.93;1.60;;;;;;;6.37;86.09;97398.38;5048282;28;20041;-65
2022/02/23 00:28:12;;;;;;;3.70;1.30;;;;;;;6.34;87.86;97398.22;5048761;28;20037;-66
2022/02/23 00:30:38;;;;;;;5.75;1.60;;;;;;;6.32;88.83;97377.59;5053407;28;20033;-65
2022/02/23 00:33:03;;;;;;;9.07;1.50;;;;;;;6.30;89.23;97384.47;5042112;28;20067;-63
2022/02/23 00:35:29;;;;;;;7.63;1.70;;;;;;;6.44;88.38;97379.66;5043325;28;20044;-64
2022/02/23 00:37:54;;;;;;;7.43;1.42;;;;;;;6.42;88.29;97381.09;5038941;28;20033;-66
2022/02/23 00:40:19;;;;;;;8.38;1.40;;;;;;;6.35;87.83;97381.59;5042639;28;20040;-64
2022/02/23 00:42:45;;;;;;;6.10;1.42;;;;;;;6.39;87.46;97370.84;5047786;28;20041;-64
2022/02/23 00:45:10;;;;;;;5.32;1.50;;;;;;;6.38;86.08;97366.56;5038951;28;20128;-64
2022/02/23 00:47:37;;;;;;;4.57;1.40;;;;;;;6.41;86.61;97374.03;5039421;28;20037;-63
2022/02/23 00:50:03;;;;;;;6.82;1.40;;;;;;;6.43;86.39;97378.06;5045917;28;20498;-65
2022/02/23 00:52:29;;;;;;;5.68;1.17;;;;;;;6.43;85.21;97383.50;5046794;28;20065;-64
2022/02/23 00:54:54;;;;;;;5.95;1.50;;;;;;;6.42;84.26;97390.06;5048036;28;20056;-65
2022/02/23 00:57:19;;;;;;;4.07;1.35;;;;;;;6.45;84.10;97391.34;5040342;28;20051;-64
2022/02/23 00:59:45;;;;;;;7.78;1.60;;;;;;;6.46;83.38;97393.75;5046048;28;20033;-65
2022/02/23 01:02:10;;;;;;;7.28;1.40;;;;;;;6.51;83.60;97395.50;5031993;28;20045;-64
2022/02/23 01:04:36;;;;;;;5.93;1.60;;;;;;;6.48;85.86;97393.41;5027251;28;20045;-63
2022/02/23 01:07:01;;;;;;;5.13;1.55;;;;;;;6.53;86.22;97397.91;5027168;28;20498;-64
2022/02/23 01:09:27;;;;;;;5.30;1.27;;;;;;;6.45;85.97;97396.78;5022682;28;20064;-64
2022/02/23 01:11:52;;;;;;;5.57;1.20;;;;;;;6.53;85.95;97389.72;5044389;28;20049;-66
2022/02/23 01:14:18;;;;;;;11.57;1.42;;;;;;;6.43;86.38;97393.59;5031405;28;20049;-64
2022/02/23 01:16:43;;;;;;;5.88;1.70;;;;;;;6.45;85.41;97397.59;5044060;28;20052;-64
2022/02/23 01:19:09;;;;;;;3.53;1.38;;;;;;;6.48;85.16;97404.28;5038645;28;20041;-65
2022/02/23 01:21:34;;;;;;;6.10;1.15;;;;;;;6.45;85.90;97415.84;5043959;28;20079;-64
2022/02/23 01:24:00;;;;;;;4.45;1.58;;;;;;;6.40;85.21;97422.22;5033348;28;20691;-64
2022/02/23 01:26:26;;;;;;;4.35;1.60;;;;;;;6.45;86.13;97411.19;5044928;28;20024;-64
2022/02/23 01:28:52;;;;;;;7.70;1.25;;;;;;;6.51;84.03;97418.06;5043791;28;20025;-63
2022/02/23 01:31:17;;;;;;;3.90;1.17;;;;;;;6.53;84.60;97411.50;5051898;28;20098;-63
2022/02/23 01:33:43;;;;;;;5.65;1.25;;;;;;;6.51;84.68;97409.09;5045920;28;20025;-65
2022/02/23 01:36:08;;;;;;;8.73;1.20;;;;;;;6.47;84.98;97408.16;5036764;28;20674;-63
2022/02/23 01:38:33;;;;;;;11.15;1.80;;;;;;;6.47;85.73;97411.66;5046123;28;20059;-62
2022/02/23 01:41:01;;;;;;;10.55;2.58;;;;;;;6.45;86.48;97405.75;5047080;28;20335;-64
2022/02/23 01:43:27;;;;;;;7.15;1.58;;;;;;;6.39;87.29;97407.03;5041545;28;20037;-66
2022/02/23 01:45:53;;;;;;;6.60;2.17;;;;;;;6.40;86.88;97403.19;5044081;28;20418;-65
2022/02/23 01:48:18;;;;;;;7.07;1.95;;;;;;;6.29;89.49;97410.09;5034891;28;20116;-66
2022/02/23 01:50:44;;;;;;;7.43;1.45;;;;;;;6.26;89.98;97395.19;5034577;28;20037;-65
2022/02/23 01:53:09;;;;;;;13.38;1.50;;;;;;;6.27;90.17;97415.06;5040380;28;20740;-66
2022/02/23 01:55:35;;;;;;;7.00;1.33;;;;;;;6.25;90.59;97409.94;5053863;28;20043;-65
2022/02/23 01:58:02;;;;;;;9.35;1.35;;;;;;;6.25;91.47;97412.66;5053661;28;20037;-65
2022/02/23 02:00:28;;;;;;;7.55;1.52;;;;;;;6.28;90.95;97412.03;5053332;28;20037;-65
2022/02/23 02:02:53;;;;;;;7.78;1.67;;;;;;;6.27;91.84;97415.06;5052119;28;20035;-66
2022/02/23 02:05:20;;;;;;;5.47;1.30;;;;;;;6.34;91.33;97411.81;5053022;28;20036;-66
2022/02/23 02:07:45;;;;;;;7.43;1.67;;;;;;;6.36;90.56;97417.78;5052989;28;20036;-66
2022/02/23 02:10:10;;;;;;;6.47;1.35;;;;;;;6.32;90.91;97417.63;5052803;28;20033;-66
2022/02/23 02:12:36;;;;;;;3.83;1.50;;;;;;;6.28;90.76;97417.47;5052925;28;20056;-65
2022/02/23 02:15:03;;;;;;;5.40;1.20;;;;;;;6.29;90.36;97421.75;5052830;28;20029;-66
2022/02/23 02:17:29;;;;;;;5.03;1.42;;;;;;;6.30;90.30;97420.66;5052321;28;20029;-66
2022/02/23 02:19:55;;;;;;;9.73;1.60;;;;;;;6.26;90.28;97416.94;5051057;28;20462;-66
2022/02/23 02:22:21;;;;;;;9.45;1.88;;;;;;;6.32;89.85;97423.06;5038424;28;20056;-66
2022/02/23 02:24:47;;;;;;;4.50;1.45;;;;;;;6.29;90.02;97432.66;5037978;28;20033;-66
2022/02/23 02:27:15;;;;;;;5.40;1.52;;;;;;;6.34;90.23;97431.69;5032911;28;20033;-66
2022/02/23 02:29:43;;;;;;;5.38;1.27;;;;;;;6.37;89.83;97433.75;5033691;28;20029;-68
2022/02/23 02:32:09;;;;;;;6.60;1.60;;;;;;;6.31;90.56;97435.03;5033391;28;20060;-66
2022/02/23 02:34:35;;;;;;;8.27;1.60;;;;;;;6.32;90.24;97432.00;5033320;28;20448;-65
2022/02/23 02:37:02;;;;;;;6.03;1.40;;;;;;;6.22;90.74;97434.25;5032354;28;20038;-66
2022/02/23 02:39:27;;;;;;;4.22;1.42;;;;;;;6.24;91.31;97435.53;5032594;28;20044;-65
2022/02/23 02:41:53;;;;;;;5.63;1.92;;;;;;;6.35;90.57;97441.44;5032682;28;20482;-65
2022/02/23 02:44:19;;;;;;;5.68;1.75;;;;;;;6.37;90.68;97439.19;5032370;28;20036;-66
2022/02/23 02:46:45;;;;;;;6.95;1.38;;;;;;;6.37;89.90;97441.13;5032344;28;20030;-66
2022/02/23 02:49:13;;;;;;;6.32;1.60;;;;;;;6.39;89.62;97444.31;5032140;28;20059;-65
2022/02/23 02:51:40;;;;;;;10.23;1.60;;;;;;;6.34;90.38;97439.03;5037660;28;20021;-65
2022/02/23 02:54:07;;;;;;;7.25;1.58;;;;;;;6.35;90.32;97443.38;5037451;28;20025;-65
2022/02/23 02:56:33;;;;;;;7.38;2.60;;;;;;;6.29;90.32;97442.72;5032032;28;20029;-65
2022/02/23 02:58:59;;;;;;;8.30;1.52;;;;;;;6.25;91.05;97456.19;5031764;28;20094;-65
2022/02/23 03:01:27;;;;;;;6.22;1.70;;;;;;;6.26;91.30;97443.38;5031595;28;20025;-65
2022/02/23 03:03:53;;;;;;;4.75;1.60;;;;;;;6.27;90.89;97436.81;5031634;28;20044;-65
2022/02/23 03:06:19;;;;;;;6.03;1.50;;;;;;;6.27;91.03;97451.22;5031497;28;20034;-65
2022/02/23 03:08:47;;;;;;;5.93;1.52;;;;;;;6.23;91.37;97447.53;5031092;28;20112;-65
2022/02/23 03:11:14;;;;;;;5.35;1.38;;;;;;;6.24;91.82;97460.00;5032181;28;20505;-66
2022/02/23 03:13:39;;;;;;;7.32;1.65;;;;;;;6.36;91.61;97455.88;5031705;28;20425;-65
2022/02/23 03:16:07;;;;;;;7.60;2.10;;;;;;;6.26;92.21;97455.03;5031465;28;20079;-66
2022/02/23 03:18:33;;;;;;;10.38;1.65;;;;;;;6.27;91.97;97464.81;5046058;28;20037;-66
2022/02/23 03:20:59;;;;;;;7.57;1.55;;;;;;;6.38;91.65;97462.56;5035707;28;20037;-66
2022/02/23 03:23:25;;;;;;;3.80;1.50;;;;;;;6.31;92.46;97470.41;5054981;28;20367;-66
2022/02/23 03:25:51;;;;;;;4.35;1.30;;;;;;;6.44;91.92;97466.72;5051119;28;20036;-66
2022/02/23 03:28:16;;;;;;;7.20;1.48;;;;;;;6.41;91.28;97470.09;5050869;28;20036;-65
2022/02/23 03:30:42;;;;;;;10.05;1.75;;;;;;;6.49;91.00;97476.66;5051498;28;20437;-66
2022/02/23 03:33:11;;;;;;;4.10;1.15;;;;;;;6.36;92.25;97469.47;5051501;28;20037;-66
2022/02/23 03:35:38;;;;;;;6.03;1.20;;;;;;;6.22;92.92;97475.06;5051022;28;20145;-65
2022/02/23 03:38:04;;;;;;;8.20;3.83;;;;;;;6.15;92.97;97485.63;5050875;28;20032;-66
2022/02/23 03:40:29;;;;;;;9.40;1.65;;;;;;;6.13;92.86;97484.00;5051274;28;20063;-66
2022/02/23 03:42:55;;;;;;;5.57;1.73;;;;;;;6.17;93.26;97477.94;5051551;28;20589;-65
2022/02/23 03:45:21;;;;;;;6.32;1.42;;;;;;;6.20;93.37;97488.19;5051184;28;20110;-63
2022/02/23 03:47:46;;;;;;;7.03;1.38;;;;;;;6.27;92.86;97496.66;5050616;28;20369;-66
2022/02/23 03:50:13;;;;;;;8.90;2.10;;;;;;;6.27;92.98;97499.38;5051724;28;20037;-66
2022/02/23 03:52:40;;;;;;;5.15;1.70;;;;;;;6.29;93.02;97502.59;5048256;28;20029;-67
2022/02/23 03:55:06;;;;;;;3.85;1.30;;;;;;;6.25;94.42;97516.03;5047081;28;20037;-65
2022/02/23 03:57:32;;;;;;;12.45;1.55;;;;;;;6.25;95.78;97509.78;5031655;28;20446;-66
2022/02/23 03:59:57;;;;;;;3.20;1.33;;;;;;;6.19;96.99;97519.22;5042044;28;20032;-66
2022/02/23 04:02:23;;;;;;;7.38;1.52;;;;;;;6.17;97.50;97511.38;5043112;28;20049;-67
2022/02/23 04:04:49;;;;;;;5.40;1.40;;;;;;;6.20;97.63;97518.09;5050332;28;20052;-66
2022/02/23 04:07:14;;;;;;;6.82;1.52;;;;;;;6.13;98.18;97513.91;5042691;28;20025;-66
2022/02/23 04:09:39;;;;;;;4.78;1.50;;;;;;;6.15;98.93;97523.69;5049486;28;20499;-65
2022/02/23 04:12:05;;;;;;;8.40;1.38;;;;;;;6.20;98.27;97527.06;5043139;28;20328;-66
2022/02/23 04:14:30;;;;;;;13.82;1.85;;;;;;;6.16;98.28;97534.25;5041314;28;20053;-66
2022/02/23 04:16:56;;;;;;;3.78;1.65;;;;;;;6.34;97.93;97543.25;5044033;28;20028;-65
2022/02/23 04:19:21;;;;;;;5.57;1.42;;;;;;;6.42;96.58;97538.94;5031550;28;20068;-66
2022/02/23 04:21:47;;;;;;;7.10;1.52;;;;;;;6.45;97.16;97546.47;5031449;28;20052;-65
2022/02/23 04:24:12;;;;;;;6.55;1.35;;;;;;;6.36;97.43;97557.34;5035129;28;20056;-65
2022/02/23 04:26:37;;;;;;;4.55;1.30;;;;;;;6.30;97.83;97562.13;5042385;28;20100;-66
2022/02/23 04:29:04;;;;;;;6.53;1.52;;;;;;;6.25;98.95;97562.28;5050021;28;20086;-65
2022/02/23 04:31:31;;;;;;;6.93;1.65;;;;;;;6.31;98.93;97569.16;5048020;28;20026;-65
2022/02/23 04:33:57;;;;;;;11.20;1.50;;;;;;;6.32;99.47;97572.69;5046390;28;20057;-65
2022/02/23 04:36:23;;;;;;;7.80;1.60;;;;;;;6.25;100.00;97572.38;5048951;28;20068;-65
2022/02/23 04:38:48;;;;;;;7.53;1.40;;;;;;;6.36;100.00;97572.88;5048642;28;20076;-65
2022/02/23 04:41:13;;;;;;;9.80;1.80;;;;;;;6.31;99.82;97574.59;5042595;28;20044;-65
2022/02/23 04:43:39;;;;;;;7.35;1.40;;;;;;;6.32;99.93;97580.84;5049556;28;20033;-62
2022/02/23 04:46:08;;;;;;;3.72;1.33;;;;;;;6.20;100.00;97581.47;5054580;28;20025;-65
2022/02/23 04:48:35;;;;;;;2.80;1.50;;;;;;;6.22;100.00;97583.88;5030743;28;20045;-65
2022/02/23 04:51:01;;;;;;;7.15;1.42;;;;;;;6.21;100.00;97583.06;5043640;28;20033;-64
2022/02/23 04:53:26;;;;;;;5.07;1.40;;;;;;;6.15;100.00;97580.81;5043558;28;20156;-66
2022/02/23 04:55:51;;;;;;;7.03;1.67;;;;;;;6.09;100.00;97588.31;5034706;28;20030;-66
2022/02/23 04:58:17;;;;;;;8.52;1.92;;;;;;;6.09;100.00;97580.16;5035049;28;20041;-65
2022/02/23 05:00:43;;;;;;;7.45;1.52;;;;;;;6.03;100.00;97581.41;5063314;28;20032;-65
2022/02/23 05:03:08;;;;;;;6.55;1.75;;;;;;;6.02;100.00;97582.53;5057112;28;20036;-65
2022/02/23 05:05:34;;;;;;;6.43;1.45;;;;;;;6.18;100.00;97588.34;5049643;28;20097;-67
2022/02/23 05:08:00;;;;;;;5.38;1.20;;;;;;;6.27;100.00;97587.25;5050410;28;20069;-65
2022/02/23 05:10:26;;;;;;;6.30;1.55;;;;;;;6.29;100.00;97595.88;5053459;28;20080;-64
2022/02/23 05:12:53;;;;;;;5.85;1.35;;;;;;;6.32;100.00;97592.53;5046017;28;20028;-65
2022/02/23 05:15:18;;;;;;;6.47;1.98;;;;;;;6.23;100.00;97593.63;5050923;28;20059;-66
2022/02/23 05:17:44;;;;;;;7.60;1.50;;;;;;;6.12;100.00;97598.53;5047813;28;20021;-66
2022/02/23 05:20:10;;;;;;;5.25;1.38;;;;;;;6.07;100.00;97598.72;5053120;28;20037;-66
2022/02/23 05:22:36;;;;;;;11.27;2.08;;;;;;;6.22;100.00;97603.69;5046112;28;20029;-67
2022/02/23 05:25:02;;;;;;;6.38;2.30;;;;;;;6.15;100.00;97611.53;5054143;28;20037;-66
2022/02/23 05:27:28;;;;;;;8.05;2.55;;;;;;;6.19;100.00;97612.50;5054076;28;20025;-67
2022/02/23 05:29:53;;;;;;;12.23;3.42;;;;;;;6.25;100.00;97610.44;5055436;28;20114;-68
2022/02/23 05:32:19;;;;;;;11.27;3.60;;;;;;;6.24;100.00;97619.72;5045668;28;20029;-67
2022/02/23 05:34:45;;;;;;;15.05;4.10;;;;;;;6.12;100.00;97602.09;5034003;28;20041;-66
2022/02/23 05:37:10;;;;;;;15.63;4.28;;;;;;;6.00;100.00;97604.59;5033827;28;20029;-65
2022/02/23 05:39:35;;;;;;;11.02;3.15;;;;;;;5.88;100.00;97612.50;5034107;28;20088;-66
2022/02/23 05:42:01;;;;;;;6.57;2.67;;;;;;;5.91;100.00;97614.63;5051076;28;20035;-67
2022/02/23 05:44:26;;;;;;;8.98;3.58;;;;;;;5.90;100.00;97618.44;5042712;28;20037;-65
2022/02/23 05:46:52;;;;;;;9.85;2.58;;;;;;;5.94;100.00;97631.09;5052231;28;20116;-67
2022/02/23 05:49:17;;;;;;;9.40;2.70;;;;;;;5.93;100.00;97634.13;5033661;28;20459;-67
2022/02/23 05:51:46;;;;;;;7.63;1.77;;;;;;;5.88;100.00;97636.97;5048981;28;20394;-66
2022/02/23 05:54:12;;;;;;;7.57;2.33;;;;;;;5.82;100.00;97640.97;5036394;28;20535;-67
2022/02/23 05:56:37;;;;;;;5.18;1.83;;;;;;;5.80;100.00;97640.44;5033151;28;20033;-67
2022/02/23 05:59:03;;;;;;;8.00;2.08;;;;;;;5.70;100.00;97646.97;5036901;28;20108;-65
2022/02/23 06:01:28;;;;;;;6.88;1.38;;;;;;;5.72;100.00;97652.88;5056296;28;20414;-67
2022/02/23 06:03:54;;;;;;;6.90;1.65;;;;;;;5.73;100.00;97657.22;5042955;28;20506;-66
2022/02/23 06:06:19;;;;;;;4.45;1.30;;;;;;;5.73;100.00;97671.59;5051416;28;20363;-66
2022/02/23 06:08:45;;;;;;;6.30;1.45;;;;;;;5.72;100.00;97672.72;5056079;28;20162;-66
2022/02/23 06:11:11;;;;;;;8.95;2.33;;;;;;;5.59;100.00;97681.75;5059634;28;20047;-66
2022/02/23 06:13:37;;;;;;;7.32;2.00;;;;;;;5.41;100.00;97675.41;5041967;28;20030;-66
2022/02/23 06:16:02;;;;;;;7.72;2.00;;;;;;;5.28;100.00;97690.66;5059140;28;20158;-67
2022/02/23 06:18:28;;;;;;;12.45;2.22;;;;;;;5.19;100.00;97689.78;5033687;28;20033;-65
2022/02/23 06:20:55;;;;;;;4.30;2.20;;;;;;;5.00;100.00;97691.84;5043637;28;20029;-65
2022/02/23 06:23:25;;;;;;;8.32;2.58;;;;;;;4.76;100.00;97696.41;5044675;28;20029;-65
2022/02/23 06:25:52;;;;;;;9.38;2.30;;;;;;;4.72;100.00;97698.13;5052887;28;20139;-65
2022/02/23 06:28:17;;;;;;;7.18;2.00;;;;;;;4.58;100.00;97698.13;5052750;28;20036;-66
2022/02/23 06:30:43;;;;;;;3.42;1.13;;;;;;;4.50;100.00;97698.88;5051104;28;20025;-67
2022/02/23 06:33:09;;;;;;;4.75;1.20;;;;;;;4.35;100.00;97705.38;5035938;28;20076;-66
2022/02/23 06:35:35;;;;;;;3.60;1.50;;;;;;;4.26;100.00;97707.19;5046384;28;20037;-66
2022/02/23 06:38:01;;;;;;;2.60;1.23;;;;;;;4.16;100.00;97702.78;5048625;28;20102;-65
2022/02/23 06:40:27;;;;;;;4.38;1.15;;;;;;;4.10;100.00;97716.72;5052190;28;20033;-66
2022/02/23 06:42:52;;;;;;;4.53;1.30;;;;;;;4.05;100.00;97706.75;5044784;28;20090;-65
2022/02/23 06:45:18;;;;;;;6.40;1.40;;;;;;;4.03;100.00;97719.81;5049497;28;20035;-65
2022/02/23 06:47:43;;;;;;;4.63;1.10;;;;;;;3.89;100.00;97716.25;5045976;28;20394;-66
2022/02/23 06:50:09;;;;;;;4.07;1.55;;;;;;;3.76;100.00;97717.84;5051438;28;20390;-65
2022/02/23 06:52:36;;;;;;;3.03;1.38;;;;;;;3.75;100.00;97719.75;5042798;28;20107;-64
2022/02/23 06:55:02;;;;;;;8.00;1.52;;;;;;;3.71;100.00;97716.03;5052451;28;20469;-66
2022/02/23 06:57:38;;;;;;;5.70;1.13;;;;;;;3.66;100.00;97720.75;5041986;28;20042;-67
2022/02/23 07:00:06;;;;;;;5.60;2.22;;;;;;;3.59;100.00;97731.94;5047175;28;20116;-66
2022/02/23 07:02:32;;;;;;;4.30;1.50;;;;;;;3.59;100.00;97726.53;5040549;28;20101;-65
2022/02/23 07:04:58;;;;;;;5.53;1.65;;;;;;;3.59;100.00;97726.53;5043225;28;20075;-66
2022/02/23 07:07:23;;;;;;;5.43;1.30;;;;;;;3.59;100.00;97730.03;5040521;28;20525;-63
2022/02/23 07:09:49;;;;;;;4.93;1.88;;;;;;;3.59;100.00;97726.53;5046951;28;20506;-67
2022/02/23 07:12:14;;;;;;;4.22;2.50;;;;;;;3.62;100.00;97725.94;5048963;28;20489;-66
2022/02/23 07:14:39;;;;;;;5.20;2.72;;;;;;;3.62;100.00;97725.94;5056641;28;20091;-66
2022/02/23 07:17:05;;;;;;;8.02;3.08;;;;;;;3.62;100.00;97723.25;5049172;28;20025;-67
2022/02/23 07:19:30;;;;;;;13.35;3.33;;;;;;;3.66;100.00;97724.25;5052195;28;20075;-67
2022/02/23 07:21:56;;;;;;;13.65;4.18;;;;;;;3.67;100.00;97728.56;5051974;28;20029;-65
2022/02/23 07:24:21;;;;;;;10.57;2.25;;;;;;;3.81;100.00;97725.91;5064990;28;20082;-65
2022/02/23 07:26:47;;;;;;;6.18;2.83;;;;;;;3.88;100.00;97736.34;5043268;28;20056;-66
2022/02/23 07:29:13;;;;;;;2.45;1.10;;;;;;;3.97;100.00;97735.38;5052276;28;20037;-67
2022/02/23 07:31:40;;;;;;;7.72;1.20;;;;;;;4.01;100.00;97739.06;5046638;28;20032;-66
2022/02/23 07:34:06;;;;;;;3.17;1.30;;;;;;;4.13;100.00;97732.38;5045916;28;20025;-64
2022/02/23 07:36:32;;;;;;;7.10;1.35;;;;;;;4.18;100.00;97740.44;5052660;28;20529;-66
2022/02/23 07:38:58;;;;;;;5.85;1.80;;;;;;;4.20;100.00;97741.72;5048636;28;20064;-66
2022/02/23 07:41:25;;;;;;;7.20;2.15;;;;;;;4.17;100.00;97742.31;5048589;28;20025;-66
2022/02/23 07:43:51;;;;;;;4.97;1.20;;;;;;;4.27;100.00;97744.06;5045870;28;20037;-66
2022/02/23 07:46:17;;;;;;;14.27;3.90;;;;;;;4.24;100.00;97749.28;5043139;28;20385;-66
2022/02/23 07:48:45;;;;;;;5.10;2.17;;;;;;;4.16;100.00;97754.28;5053693;28;20040;-65
2022/02/23 07:51:10;;;;;;;8.52;2.42;;;;;;;4.16;100.00;97751.56;5050315;28;20048;-66
2022/02/23 07:53:36;;;;;;;12.70;6.22;;;;;;;4.15;100.00;97755.38;5047844;28;20025;-66
2022/02/23 07:56:02;;;;;;;11.25;3.65;;;;;;;4.10;100.00;97760.88;5044171;28;20045;-66
2022/02/23 07:58:27;;;;;;;6.82;3.20;;;;;;;4.12;100.00;97747.84;5051733;28;20024;-66
2022/02/23 08:00:53;;;;;;;7.75;4.20;;;;;;;4.20;100.00;97752.59;5050613;28;20037;-64
2022/02/23 08:03:18;;;;;;;5.63;1.08;;;;;;;4.18;100.00;97756.72;5033473;28;20036;-66
2022/02/23 08:05:44;;;;;;;6.22;1.77;;;;;;;4.32;100.00;97759.41;5031486;28;20037;-66
2022/02/23 08:08:09;;;;;;;3.58;1.10;;;;;;;4.39;100.00;97755.22;5037511;28;20048;-65
2022/02/23 08:10:35;;;;;;;5.20;1.85;;;;;;;4.55;100.00;97754.91;5047059;28;20094;-66
2022/02/23 08:13:04;;;;;;;7.93;2.88;;;;;;;4.49;100.00;97759.63;5045134;28;20029;-67
2022/02/23 08:20:59;;;;;;;8.35;3.20;;;;;;;4.70;100.00;97761.94;5048375;28;20033;-67
2022/02/23 08:23:24;;;;;;;10.45;2.28;;;;;;;4.69;100.00;97763.06;5042543;28;20093;-67
2022/02/23 08:25:49;;;;;;;15.25;4.55;;;;;;;4.99;100.00;97767.06;5058608;28;20037;-67
2022/02/23 08:28:16;;;;;;;4.72;2.22;;;;;;;4.95;100.00;97774.19;5046648;28;20448;-66
2022/02/23 08:30:41;;;;;;;8.05;2.92;;;;;;;4.91;100.00;97773.19;5051290;28;20022;-67
2022/02/23 08:33:07;;;;;;;3.88;1.60;;;;;;;4.73;100.00;97775.72;5061526;28;20029;-65
2022/02/23 08:35:33;;;;;;;4.95;1.63;;;;;;;4.76;100.00;97777.03;5045997;28;20383;-67
2022/02/23 08:37:59;;;;;;;5.95;2.13;;;;;;;4.85;100.00;97779.84;5047315;28;20033;-66
2022/02/23 08:40:24;;;;;;;14.48;2.40;;;;;;;5.01;100.00;97777.63;5051449;28;20067;-67
2022/02/23 08:42:50;;;;;;;3.63;2.25;;;;;;;5.11;100.00;97777.41;5030831;28;20077;-67
2022/02/23 08:45:16;;;;;;;4.72;1.40;;;;;;;5.26;100.00;97773.56;5032702;28;20041;-66
2022/02/23 08:47:41;;;;;;;3.15;1.40;;;;;;;5.36;100.00;97779.53;5036143;28;20115;-66
2022/02/23 08:50:08;;;;;;;5.55;1.65;;;;;;;5.43;100.00;97781.84;5044273;28;20075;-66
2022/02/23 08:52:33;;;;;;;6.25;2.08;;;;;;;5.09;100.00;97785.84;5031163;28;20549;-65
2022/02/23 08:54:59;;;;;;;3.85;1.40;;;;;;;5.15;100.00;97781.13;5039296;28;20049;-68
2022/02/23 08:57:26;;;;;;;2.47;1.52;;;;;;;5.11;100.00;97778.22;5023339;28;20108;-64
2022/02/23 08:59:51;;;;;;;10.95;2.85;;;;;;;5.27;100.00;97772.44;5036063;28;20172;-65
2022/02/23 09:02:16;;;;;;;12.95;6.53;;;;;;;5.45;100.00;97776.13;5027891;28;20061;-66
2022/02/23 09:04:43;;;;;;;8.32;4.22;;;;;;;5.49;100.00;97777.09;5032720;28;20128;-67
2022/02/23 09:07:10;;;;;;;6.40;1.77;;;;;;;5.42;100.00;97776.72;5032252;28;20588;-65
2022/02/23 09:09:36;;;;;;;5.65;1.63;;;;;;;5.60;100.00;97770.34;5033511;28;20088;-66
2022/02/23 09:12:02;;;;;;;9.00;1.90;;;;;;;6.03;100.00;97769.88;5043681;23;20073;-67
2022/02/23 09:14:28;;;;;;;9.98;4.07;;;;;;;5.94;100.00;97775.22;5032820;28;20128;-64
2022/02/23 09:16:53;;;;;;;5.30;2.30;;;;;;;6.33;100.00;97759.31;5019830;28;20148;-67
2022/02/23 09:19:18;;;;;;;5.38;1.45;;;;;;;6.37;97.89;97765.72;5010020;28;20050;-65
2022/02/23 09:21:44;;;;;;;4.78;1.70;;;;;;;6.54;95.89;97758.78;5022585;28;20053;-64
2022/02/23 09:24:09;;;;;;;4.97;1.40;;;;;;;6.33;96.98;97764.75;5010404;28;20049;-66
2022/02/23 09:26:35;;;;;;;6.90;1.58;;;;;;;6.33;97.57;97762.03;5018997;28;20044;-65
2022/02/23 09:29:02;;;;;;;5.65;1.40;;;;;;;6.49;99.05;97756.97;5022208;28;20055;-66
2022/02/23 09:31:27;;;;;;;5.75;2.50;;;;;;;6.50;98.40;97751.22;5014375;28;20052;-65
2022/02/23 09:33:54;;;;;;;4.82;1.85;;;;;;;6.79;95.34;97765.41;5017316;28;20045;-65
2022/02/23 09:36:20;;;;;;;9.35;2.17;;;;;;;7.42;92.83;97761.38;5025234;28;20096;-62
2022/02/23 09:38:46;;;;;;;12.20;2.22;;;;;;;7.80;89.95;97755.25;5029083;28;20045;-66
2022/02/23 09:41:15;;;;;;;4.78;1.45;;;;;;;7.23;92.62;97761.66;5020689;28;20052;-65
2022/02/23 09:43:41;;;;;;;4.45;1.60;;;;;;;6.85;95.48;97755.97;5018896;28;20042;-65
2022/02/23 09:46:08;;;;;;;9.25;1.70;;;;;;;6.91;95.11;97757.44;5026008;28;20076;-64
2022/02/23 09:48:35;;;;;;;6.38;1.85;;;;;;;7.73;90.29;97757.69;5024287;28;20562;-64
2022/02/23 09:51:01;;;;;;;7.28;2.63;;;;;;;8.14;88.37;97753.63;5021227;28;20093;-67
2022/02/23 09:53:27;;;;;;;6.40;2.05;;;;;;;8.10;87.87;97752.63;5005824;28;20073;-65
2022/02/23 09:55:59;;;;;;;5.18;2.08;;;;;;;8.60;85.48;97760.22;5003541;28;20139;-63
2022/02/23 09:58:26;;;;;;;2.58;1.25;;;;;;;7.98;88.25;97760.72;5011902;28;20045;-65
2022/02/23 10:00:54;;;;;;;8.25;1.85;;;;;;;7.78;89.86;97752.06;5016721;28;20041;-64
2022/02/23 10:03:21;;;;;;;8.40;1.52;;;;;;;8.53;86.65;97753.66;5015879;28;20037;-65
2022/02/23 10:05:46;;;;;;;10.35;1.77;;;;;;;8.63;85.50;97744.34;5023674;28;20132;-64
2022/02/23 10:08:12;;;;;;;12.13;6.03;;;;;;;7.72;90.26;97753.34;5020022;28;20085;-68
2022/02/23 10:10:40;;;;;;;5.57;2.03;;;;;;;8.29;89.35;97749.56;5018256;28;20065;-66
2022/02/23 10:13:07;;;;;;;5.40;1.60;;;;;;;8.61;85.55;97748.19;5021494;28;20041;-67
2022/02/23 10:15:41;;;;;;;4.95;1.50;;;;;;;8.86;85.53;97742.09;5022662;28;20047;-65
2022/02/23 10:18:12;;;;;;;6.57;1.65;;;;;;;9.31;83.07;97749.69;5023198;28;20486;-65
2022/02/23 10:20:39;;;;;;;6.82;1.98;;;;;;;8.24;87.57;97747.00;5014694;28;20506;-67
2022/02/23 10:23:20;;;;;;;3.58;1.30;;;;;;;7.82;91.35;97753.00;5029850;28;20136;-66
2022/02/23 10:26:05;;;;;;;4.00;1.92;;;;;;;8.08;90.02;97746.72;5012450;28;20046;-66
2022/02/23 10:28:34;;;;;;;3.42;1.80;;;;;;;8.50;89.43;97743.41;5013448;28;20111;-66
2022/02/23 10:31:01;;;;;;;11.52;2.25;;;;;;;8.63;87.32;97745.13;5031428;28;20121;-67
2022/02/23 10:33:34;;;;;;;4.95;1.70;;;;;;;9.17;84.49;97744.50;5012440;28;20767;-64
2022/02/23 10:36:07;;;;;;;3.92;1.40;;;;;;;8.85;85.24;97738.59;5019118;28;20050;-65
2022/02/23 10:38:40;;;;;;;10.00;3.70;;;;;;;8.70;87.70;97733.69;5013192;28;20045;-66
2022/02/23 10:41:08;;;;;;;6.35;2.30;;;;;;;8.85;87.80;97724.94;5009406;28;20049;-65
2022/02/23 10:43:36;;;;;;;3.67;1.70;;;;;;;8.37;90.91;97728.81;5017273;28;20049;-65
2022/02/23 10:46:08;;;;;;;3.80;1.50;;;;;;;7.94;92.69;97727.81;5012050;28;20041;-67
2022/02/23 10:48:37;;;;;;;6.30;1.40;;;;;;;8.18;91.49;97726.47;5012180;28;20057;-65
2022/02/23 10:51:04;;;;;;;5.78;2.35;;;;;;;9.43;85.63;97714.22;5017421;28;20107;-67
2022/02/23 10:53:31;;;;;;;8.23;1.90;;;;;;;10.13;81.14;97713.59;5009393;28;20057;-66
2022/02/23 10:55:57;;;;;;;3.10;1.52;;;;;;;10.48;78.34;97708.53;5010567;28;20057;-66
2022/02/23 10:58:29;;;;;;;7.45;1.75;;;;;;;10.16;78.89;97709.38;5010539;28;20515;-66
2022/02/23 11:01:02;;;;;;;4.20;1.63;;;;;;;9.34;82.89;97702.56;5002808;28;20422;-65
2022/02/23 11:03:28;;;;;;;6.32;3.30;;;;;;;9.15;84.69;97695.66;5007441;28;20049;-65
2022/02/23 11:05:54;;;;;;;7.05;1.83;;;;;;;9.43;85.51;97692.34;5035409;28;20083;-66
2022/02/23 11:08:21;;;;;;;8.63;1.80;;;;;;;10.73;78.72;97703.06;5012941;28;20413;-67
2022/02/23 11:10:48;;;;;;;2.22;1.05;;;;;;;10.43;76.15;97692.31;5012310;28;20420;-66
2022/02/23 11:13:17;;;;;;;3.28;1.25;;;;;;;10.12;80.81;97684.63;5014174;28;20050;-67
2022/02/23 11:15:45;;;;;;;5.07;1.33;;;;;;;10.12;77.40;97687.38;5013737;28;20174;-66
2022/02/23 11:18:15;;;;;;;4.65;1.30;;;;;;;11.06;75.24;97677.47;5020100;28;20046;-66
2022/02/23 11:20:43;;;;;;;3.55;1.20;;;;;;;11.36;72.12;97683.44;5008530;28;20041;-66
2022/02/23 11:23:17;;;;;;;2.80;1.27;;;;;;;11.65;71.88;97676.03;5014992;28;20041;-66
2022/02/23 11:25:46;;;;;;;5.13;1.08;;;;;;;12.31;67.70;97676.59;5030184;28;20115;-65
2022/02/23 11:28:29;;;;;;;4.60;1.15;;;;;;;12.24;67.91;97674.44;5009474;28;20085;-66
2022/02/23 11:31:10;;;;;;;2.28;0.85;;;;;;;12.16;65.81;97664.44;5023934;28;20034;-67
2022/02/23 11:34:08;;;;;;;4.25;1.10;;;;;;;11.90;67.55;97662.16;5020505;28;20041;-66
2022/02/23 11:36:42;;;;;;;2.78;1.30;;;;;;;11.08;70.98;97666.94;5005164;28;20109;-65
2022/02/23 11:39:13;;;;;;;4.45;1.27;;;;;;;11.37;71.05;97660.34;5006241;28;20052;-67